createdAt,value
2018-01-10T00:00:48.592Z,4.00
2018-01-10T00:03:16.016Z,4.10
2018-01-10T00:05:43.459Z,4.10
2018-01-10T00:08:10.908Z,4.00
2018-01-10T00:10:38.352Z,4.00
2018-01-10T00:13:05.772Z,3.90
2018-01-10T00:15:33.960Z,3.80
2018-01-10T00:18:01.400Z,3.80
2018-01-10T00:20:28.820Z,3.80
2018-01-10T00:22:57.003Z,3.80
2018-01-10T00:25:24.424Z,3.80
2018-01-10T00:27:51.847Z,3.80
2018-01-10T00:30:20.050Z,3.80
2018-01-10T00:32:47.522Z,3.80
2018-01-10T00:35:14.935Z,4.00
2018-01-10T00:37:42.357Z,4.00
2018-01-10T00:40:09.791Z,4.00
2018-01-10T00:42:37.283Z,4.00
2018-01-10T00:45:04.816Z,4.00
2018-01-10T00:47:32.235Z,4.00
2018-01-10T00:49:59.960Z,4.00
2018-01-10T00:52:27.363Z,4.00
2018-01-10T00:54:54.791Z,4.00
2018-01-10T00:57:22.224Z,4.00
2018-01-10T00:59:49.651Z,4.00
2018-01-10T01:02:17.069Z,4.00
2018-01-10T01:04:45.271Z,4.00
2018-01-10T01:07:12.677Z,4.00
2018-01-10T01:09:40.104Z,4.10
2018-01-10T01:12:08.291Z,4.20
2018-01-10T01:14:35.707Z,4.10
2018-01-10T01:17:03.128Z,4.20
2018-01-10T01:19:30.550Z,4.20
2018-01-10T01:21:57.976Z,4.20
2018-01-10T01:24:25.424Z,4.10
2018-01-10T01:26:52.857Z,4.10
2018-01-10T01:29:20.287Z,4.10
2018-01-10T01:31:47.715Z,4.10
2018-01-10T01:34:15.136Z,4.00
2018-01-10T01:36:43.343Z,4.00
2018-01-10T01:39:10.759Z,3.90
2018-01-10T01:41:38.187Z,3.90
2018-01-10T01:44:05.620Z,3.90
2018-01-10T01:46:33.803Z,3.90
2018-01-10T01:49:01.230Z,3.90
2018-01-10T01:51:28.655Z,3.80
2018-01-10T01:53:56.848Z,3.70
2018-01-10T01:56:24.268Z,3.70
2018-01-10T01:58:51.692Z,3.70
2018-01-10T02:01:19.879Z,3.70
2018-01-10T02:03:47.306Z,3.70
2018-01-10T02:06:15.506Z,3.70
2018-01-10T02:08:42.934Z,3.60
2018-01-10T02:11:10.360Z,3.60
2018-01-10T02:13:37.784Z,3.60
2018-01-10T02:16:05.976Z,3.60
2018-01-10T02:18:33.400Z,3.60
2018-01-10T02:21:00.823Z,3.60
2018-01-10T02:23:29.019Z,3.80
2018-01-10T02:25:56.441Z,3.80
2018-01-10T02:28:23.913Z,3.90
2018-01-10T02:30:51.316Z,4.00
2018-01-10T02:33:18.748Z,3.90
2018-01-10T02:35:46.963Z,3.90
2018-01-10T02:38:14.395Z,3.90
2018-01-10T02:40:41.846Z,3.90
2018-01-10T02:43:09.278Z,3.90
2018-01-10T02:45:36.716Z,3.90
2018-01-10T02:48:04.171Z,3.90
2018-01-10T02:50:31.623Z,3.90
2018-01-10T02:52:59.043Z,3.90
2018-01-10T02:55:28.106Z,3.90
2018-01-10T02:57:55.540Z,3.90
2018-01-10T03:00:22.976Z,3.90
2018-01-10T03:02:51.164Z,3.90
2018-01-10T03:05:18.596Z,3.90
2018-01-10T03:07:46.028Z,3.90
2018-01-10T03:10:13.451Z,3.90
2018-01-10T03:12:40.886Z,3.90
2018-01-10T03:15:09.182Z,3.90
2018-01-10T03:17:36.617Z,3.90
2018-01-10T03:20:04.023Z,3.90
2018-01-10T03:22:32.223Z,3.90
2018-01-10T03:24:59.639Z,3.80
2018-01-10T03:27:27.063Z,3.80
2018-01-10T03:29:55.255Z,3.80
2018-01-10T03:32:22.676Z,3.70
2018-01-10T03:34:50.867Z,3.70
2018-01-10T03:37:18.336Z,3.70
2018-01-10T03:39:45.759Z,3.70
2018-01-10T03:42:13.191Z,3.70
2018-01-10T03:44:40.621Z,3.70
2018-01-10T03:47:08.060Z,3.80
2018-01-10T03:49:35.472Z,3.80
2018-01-10T03:52:03.655Z,3.80
2018-01-10T03:54:31.079Z,3.80
2018-01-10T03:56:59.271Z,3.90
2018-01-10T03:59:26.692Z,3.80
2018-01-10T04:01:54.123Z,3.90
2018-01-10T04:04:22.316Z,3.90
2018-01-10T04:06:49.754Z,3.90
2018-01-10T04:09:17.187Z,3.90
2018-01-10T04:11:44.603Z,3.90
2018-01-10T04:14:12.804Z,3.80
2018-01-10T04:16:40.256Z,3.80
2018-01-10T04:19:07.688Z,3.90
2018-01-10T04:21:35.108Z,3.90
2018-01-10T04:24:02.533Z,3.90
2018-01-10T04:26:29.956Z,3.90
2018-01-10T04:28:58.149Z,3.90
2018-01-10T04:31:25.592Z,3.80
2018-01-10T04:33:53.002Z,3.90
2018-01-10T04:36:21.192Z,3.90
2018-01-10T04:38:48.636Z,3.80
2018-01-10T04:41:16.068Z,3.80
2018-01-10T04:43:43.504Z,3.80
2018-01-10T04:46:11.702Z,3.90
2018-01-10T04:48:39.119Z,3.90
2018-01-10T04:51:06.548Z,3.90
2018-01-10T04:53:33.991Z,3.90
2018-01-10T04:56:01.444Z,3.90
2018-01-10T04:58:28.888Z,3.90
2018-01-10T05:00:56.315Z,3.90
2018-01-10T05:03:23.743Z,3.90
2018-01-10T05:05:51.927Z,3.90
2018-01-10T05:08:19.359Z,3.90
2018-01-10T05:10:46.792Z,3.90
2018-01-10T05:13:14.979Z,3.90
2018-01-10T05:15:42.403Z,3.90
2018-01-10T05:18:09.831Z,3.90
2018-01-10T05:20:38.025Z,4.00
2018-01-10T05:23:05.452Z,3.90
2018-01-10T05:25:32.880Z,4.00
2018-01-10T05:28:00.312Z,4.00
2018-01-10T05:30:28.498Z,4.10
2018-01-10T05:32:55.921Z,4.10
2018-01-10T05:35:23.353Z,4.10
2018-01-10T05:37:51.551Z,4.10
2018-01-10T05:40:18.978Z,4.10
2018-01-10T05:42:46.404Z,4.10
2018-01-10T05:45:13.851Z,4.10
2018-01-10T05:47:41.294Z,4.10
2018-01-10T05:50:08.716Z,4.20
2018-01-10T05:52:36.912Z,4.20
2018-01-10T05:55:04.347Z,4.10
2018-01-10T05:57:31.767Z,4.20
2018-01-10T05:59:59.200Z,4.20
2018-01-10T06:02:27.388Z,4.20
2018-01-10T06:04:54.819Z,4.20
2018-01-10T06:07:22.231Z,4.40
2018-01-10T06:09:50.429Z,4.60
2018-01-10T06:12:17.851Z,4.60
2018-01-10T06:14:45.275Z,4.70
2018-01-10T06:17:13.459Z,4.90
2018-01-10T06:19:40.880Z,4.90
2018-01-10T06:22:08.304Z,4.80
2018-01-10T06:24:35.739Z,4.80
2018-01-10T06:27:03.166Z,4.70
2018-01-10T06:29:30.613Z,4.60
2018-01-10T06:31:58.033Z,4.50
2018-01-10T06:34:25.500Z,4.70
2018-01-10T06:36:52.919Z,4.60
2018-01-10T06:39:20.352Z,4.80
2018-01-10T06:41:47.793Z,4.80
2018-01-10T06:44:15.272Z,4.80
2018-01-10T06:46:42.706Z,4.70
2018-01-10T06:49:10.115Z,4.50
2018-01-10T06:51:37.552Z,4.40
2018-01-10T06:54:05.013Z,4.40
2018-01-10T06:56:32.454Z,4.30
2018-01-10T06:58:59.912Z,4.20
2018-01-10T07:01:27.342Z,4.20
2018-01-10T07:03:54.771Z,4.10
2018-01-10T07:06:22.210Z,4.10
2018-01-10T07:08:49.644Z,4.10
2018-01-10T07:11:17.099Z,4.00
2018-01-10T07:13:44.547Z,4.10
2018-01-10T07:16:11.979Z,4.10
2018-01-10T07:18:39.403Z,4.20
2018-01-10T07:21:06.881Z,4.30
2018-01-10T07:23:34.304Z,4.70
2018-01-10T07:26:01.735Z,4.80
2018-01-10T07:28:29.172Z,4.60
2018-01-10T07:30:56.599Z,4.40
2018-01-10T07:33:24.026Z,4.30
2018-01-10T07:35:52.213Z,4.20
2018-01-10T07:38:19.636Z,4.10
2018-01-10T07:40:47.827Z,4.10
2018-01-10T07:43:15.254Z,4.10
2018-01-10T07:45:42.686Z,4.10
2018-01-10T07:48:10.106Z,4.10
2018-01-10T07:50:38.317Z,4.20
2018-01-10T07:53:05.743Z,4.20
2018-01-10T07:55:33.172Z,4.20
2018-01-10T07:58:00.591Z,4.20
2018-01-10T08:00:28.779Z,4.30
2018-01-10T08:02:56.213Z,4.20
2018-01-10T08:05:23.631Z,4.30
2018-01-10T08:07:51.827Z,4.30
2018-01-10T08:10:19.251Z,4.30
2018-01-10T08:12:46.672Z,4.30
2018-01-10T08:15:14.867Z,4.50
2018-01-10T08:17:42.292Z,4.50
2018-01-10T08:20:09.719Z,4.60
2018-01-10T08:22:37.913Z,4.60
2018-01-10T08:25:05.336Z,4.60
2018-01-10T08:27:32.768Z,4.60
2018-01-10T08:30:00.955Z,4.70
2018-01-10T08:32:28.384Z,4.70
2018-01-10T08:34:55.811Z,4.80
2018-01-10T08:37:23.294Z,4.80
2018-01-10T08:39:50.712Z,4.80
2018-01-10T08:42:18.140Z,5.00
2018-01-10T08:44:45.560Z,5.10
2018-01-10T08:47:13.752Z,5.20
2018-01-10T08:49:41.177Z,5.10
2018-01-10T08:52:08.612Z,5.10
2018-01-10T08:54:36.816Z,5.20
2018-01-10T08:57:04.249Z,5.20
2018-01-10T08:59:31.675Z,5.20
2018-01-10T09:01:59.099Z,5.20
2018-01-10T09:04:27.291Z,5.20
2018-01-10T09:06:54.728Z,5.20
2018-01-10T09:09:22.157Z,5.20
2018-01-10T09:11:49.569Z,5.30
2018-01-10T09:14:17.757Z,5.30
2018-01-10T09:16:45.198Z,5.30
2018-01-10T09:19:13.367Z,5.40
2018-01-10T09:21:40.810Z,5.40
2018-01-10T09:24:08.223Z,5.50
2018-01-10T09:26:35.659Z,5.50
2018-01-10T09:29:03.851Z,5.50
2018-01-10T09:31:31.285Z,5.60
2018-01-10T09:33:58.704Z,5.50
2018-01-10T09:36:26.896Z,5.70
2018-01-10T09:38:54.341Z,5.70
2018-01-10T09:41:21.775Z,5.80
2018-01-10T09:43:49.201Z,5.90
2018-01-10T09:46:16.620Z,6.00
2018-01-10T09:48:44.811Z,6.10
2018-01-10T09:51:12.231Z,6.10
2018-01-10T09:53:40.425Z,6.30
2018-01-10T09:56:07.848Z,6.20
2018-01-10T09:58:35.276Z,6.30
2018-01-10T10:01:02.696Z,6.40
2018-01-10T10:03:30.120Z,6.40
2018-01-10T10:05:57.559Z,6.50
2018-01-10T10:08:24.978Z,6.60
2018-01-10T10:10:52.396Z,6.60
2018-01-10T10:13:19.824Z,6.70
2018-01-10T10:15:47.251Z,6.80
2018-01-10T10:18:15.447Z,7.00
2018-01-10T10:20:42.915Z,7.00
2018-01-10T10:23:10.340Z,7.00
2018-01-10T10:25:37.761Z,7.10
2018-01-10T10:28:05.175Z,7.30
2018-01-10T10:30:33.360Z,7.50
2018-01-10T10:33:00.803Z,7.50
2018-01-10T10:35:28.219Z,7.70
2018-01-10T10:37:56.429Z,8.00
2018-01-10T10:40:23.848Z,8.00
2018-01-10T10:42:51.284Z,8.10
2018-01-10T10:45:18.709Z,8.20
2018-01-10T10:47:46.905Z,8.20
2018-01-10T10:50:14.355Z,8.20
2018-01-10T10:52:41.788Z,8.20
2018-01-10T10:55:09.207Z,8.40
2018-01-10T10:57:36.648Z,8.40
2018-01-10T11:00:04.820Z,8.60
2018-01-10T11:02:32.243Z,8.60
2018-01-10T11:04:59.675Z,8.60
2018-01-10T11:07:27.860Z,9.20
2018-01-10T11:09:55.292Z,9.20
2018-01-10T11:12:22.707Z,9.70
2018-01-10T11:14:50.912Z,10.80
2018-01-10T11:17:18.332Z,10.80
2018-01-10T11:19:45.766Z,11.00
2018-01-10T11:22:13.184Z,11.20
2018-01-10T11:24:41.379Z,10.80
2018-01-10T11:27:08.823Z,10.80
2018-01-10T11:29:36.299Z,10.90
2018-01-10T11:32:03.715Z,11.20
2018-01-10T11:34:31.138Z,11.50
2018-01-10T11:36:58.576Z,11.70
2018-01-10T11:39:26.006Z,12.30
2018-01-10T11:41:54.215Z,12.40
2018-01-10T11:44:21.636Z,12.40
2018-01-10T11:46:49.064Z,12.50
2018-01-10T11:49:16.487Z,12.90
2018-01-10T11:51:44.685Z,12.90
2018-01-10T11:54:12.104Z,12.90
2018-01-10T11:56:39.533Z,12.60
2018-01-10T11:59:07.719Z,12.20
2018-01-10T12:01:35.140Z,12.10
2018-01-10T12:04:02.571Z,12.50
2018-01-10T12:06:30.077Z,12.50
2018-01-10T12:08:57.512Z,12.90
2018-01-10T12:11:24.935Z,13.40
2018-01-10T12:13:52.362Z,13.90
2018-01-10T12:16:19.792Z,14.00
2018-01-10T12:18:47.208Z,13.70
2018-01-10T12:21:14.641Z,13.50
2018-01-10T12:23:42.162Z,13.10
2018-01-10T12:26:09.604Z,12.70
2018-01-10T12:28:37.028Z,12.90
2018-01-10T12:31:04.449Z,13.30
2018-01-10T12:33:31.881Z,13.40
2018-01-10T12:36:00.067Z,12.80
2018-01-10T12:38:27.493Z,12.70
2018-01-10T12:40:54.903Z,12.50
2018-01-10T12:43:23.088Z,11.80
2018-01-10T12:45:50.507Z,11.80
2018-01-10T12:48:18.691Z,11.60
2018-01-10T12:50:46.111Z,11.50
2018-01-10T12:53:14.291Z,11.20
2018-01-10T12:55:41.733Z,11.30
2018-01-10T12:58:09.148Z,11.20
2018-01-10T13:00:37.359Z,11.00
2018-01-10T13:03:04.798Z,11.00
2018-01-10T13:05:32.248Z,10.90
2018-01-10T13:07:59.687Z,10.90
2018-01-10T13:10:27.117Z,10.80
2018-01-10T13:12:54.532Z,10.90
2018-01-10T13:15:21.952Z,10.90
2018-01-10T13:17:50.158Z,10.70
2018-01-10T13:20:17.558Z,10.60
2018-01-10T13:22:45.754Z,10.70
2018-01-10T13:25:13.163Z,10.70
2018-01-10T13:27:41.355Z,11.00
2018-01-10T13:30:08.768Z,11.00
2018-01-10T13:32:36.192Z,11.40
2018-01-10T13:35:04.387Z,12.30
2018-01-10T13:37:31.863Z,12.30
2018-01-10T13:39:59.283Z,12.70
2018-01-10T13:42:26.734Z,12.80
2018-01-10T13:44:54.136Z,12.60
2018-01-10T13:47:22.321Z,11.20
2018-01-10T13:49:49.735Z,11.20
2018-01-10T13:52:17.192Z,10.80
2018-01-10T13:54:44.664Z,10.60
2018-01-10T13:57:12.081Z,10.50
2018-01-10T13:59:39.532Z,10.20
2018-01-10T14:02:06.964Z,10.00
2018-01-10T14:04:34.384Z,9.80
2018-01-10T14:07:01.808Z,9.60
2018-01-10T14:09:29.992Z,9.30
2018-01-10T14:11:57.475Z,9.30
2018-01-10T14:14:24.884Z,9.20
2018-01-10T14:16:52.307Z,9.20
2018-01-10T14:19:20.522Z,9.10
2018-01-10T14:21:47.919Z,9.10
2018-01-10T14:24:15.352Z,9.20
2018-01-10T14:26:42.780Z,9.20
2018-01-10T14:29:10.979Z,9.10
2018-01-10T14:31:38.412Z,9.10
2018-01-10T14:34:05.873Z,9.10
2018-01-10T14:36:33.304Z,9.00
2018-01-10T14:39:00.729Z,9.00
2018-01-10T14:41:28.131Z,9.00
2018-01-10T14:43:55.556Z,9.00
2018-01-10T14:46:22.988Z,9.00
2018-01-10T14:48:50.420Z,9.00
2018-01-10T14:51:17.831Z,9.00
2018-01-10T14:53:45.306Z,9.00
2018-01-10T14:56:12.711Z,9.00
2018-01-10T14:58:40.127Z,8.90
2018-01-10T15:01:08.308Z,8.90
2018-01-10T15:03:35.727Z,8.80
2018-01-10T15:06:03.926Z,8.70
2018-01-10T15:08:31.362Z,8.70
2018-01-10T15:10:58.779Z,8.60
2018-01-10T15:13:26.985Z,8.30
2018-01-10T15:15:54.409Z,8.30
2018-01-10T15:18:21.824Z,8.20
2018-01-10T15:20:50.023Z,8.20
2018-01-10T15:23:17.448Z,8.20
2018-01-10T15:25:44.867Z,8.20
2018-01-10T15:28:13.148Z,8.20
2018-01-10T15:30:40.563Z,8.20
2018-01-10T15:33:08.765Z,8.10
2018-01-10T15:35:36.180Z,8.10
2018-01-10T15:38:03.601Z,8.10
2018-01-10T15:40:31.833Z,7.90
2018-01-10T15:42:59.248Z,7.90
2018-01-10T15:45:26.685Z,7.90
2018-01-10T15:47:54.114Z,7.90
2018-01-10T15:50:21.532Z,8.00
2018-01-10T15:52:49.749Z,7.90
2018-01-10T15:55:17.192Z,7.90
2018-01-10T15:57:44.602Z,7.90
2018-01-10T16:00:12.044Z,7.80
2018-01-10T16:02:39.455Z,7.80
2018-01-10T16:05:07.654Z,7.60
2018-01-10T16:07:35.100Z,7.60
2018-01-10T16:10:02.532Z,7.50
2018-01-10T16:12:29.994Z,7.40
2018-01-10T16:14:57.416Z,7.40
2018-01-10T16:17:24.847Z,7.30
2018-01-10T16:19:52.290Z,7.30
2018-01-10T16:22:19.700Z,7.20
2018-01-10T16:24:47.888Z,7.30
2018-01-10T16:27:15.332Z,7.30
2018-01-10T16:29:42.818Z,7.30
2018-01-10T16:32:10.243Z,7.30
2018-01-10T16:34:37.665Z,7.20
2018-01-10T16:37:05.088Z,7.10
2018-01-10T16:39:32.532Z,7.00
2018-01-10T16:42:00.724Z,7.00
2018-01-10T16:44:28.143Z,7.00
2018-01-10T16:46:55.585Z,7.00
2018-01-10T16:49:23.019Z,7.00
2018-01-10T16:51:50.473Z,7.00
2018-01-10T16:54:17.893Z,7.00
2018-01-10T16:56:45.326Z,7.00
2018-01-10T16:59:13.512Z,7.00
2018-01-10T17:01:40.945Z,7.00
2018-01-10T17:04:08.363Z,7.00
2018-01-10T17:06:36.560Z,6.90
2018-01-10T17:09:03.980Z,6.90
2018-01-10T17:11:31.472Z,7.00
2018-01-10T17:13:58.887Z,7.00
2018-01-10T17:16:26.315Z,6.90
2018-01-10T17:18:53.755Z,6.90
2018-01-10T17:21:21.179Z,6.90
2018-01-10T17:23:48.682Z,6.80
2018-01-10T17:26:16.124Z,6.80
2018-01-10T17:28:43.568Z,6.80
2018-01-10T17:31:11.019Z,6.80
2018-01-10T17:33:39.211Z,6.80
2018-01-10T17:36:06.652Z,6.80
2018-01-10T17:38:34.151Z,6.80
2018-01-10T17:41:01.580Z,6.80
2018-01-10T17:43:29.028Z,6.90
2018-01-10T17:45:56.447Z,6.90
2018-01-10T17:48:23.897Z,6.90
2018-01-10T17:50:51.319Z,6.90
2018-01-10T17:53:18.803Z,6.90
2018-01-10T17:55:46.228Z,6.90
2018-01-10T17:58:13.658Z,6.90
2018-01-10T18:00:41.095Z,6.90
2018-01-10T18:03:08.516Z,7.00
2018-01-10T18:05:35.944Z,7.00
2018-01-10T18:08:04.132Z,7.00
2018-01-10T18:10:31.557Z,7.00
2018-01-10T18:12:58.975Z,7.00
2018-01-10T18:15:27.206Z,7.00
2018-01-10T18:17:54.648Z,6.90
2018-01-10T18:20:22.076Z,7.00
2018-01-10T18:22:49.508Z,7.00
2018-01-10T18:25:16.931Z,6.90
2018-01-10T18:27:44.360Z,6.90
2018-01-10T18:30:11.785Z,7.00
2018-01-10T18:32:39.972Z,7.10
2018-01-10T18:35:07.395Z,7.10
2018-01-10T18:37:34.832Z,7.20
2018-01-10T18:40:03.028Z,7.20
2018-01-10T18:42:30.464Z,7.10
2018-01-10T18:44:57.935Z,7.10
2018-01-10T18:47:25.323Z,7.00
2018-01-10T18:49:52.748Z,7.10
2018-01-10T18:52:20.956Z,7.20
2018-01-10T18:54:48.379Z,7.20
2018-01-10T18:57:15.818Z,7.20
2018-01-10T18:59:44.000Z,7.40
2018-01-10T19:02:11.419Z,7.40
2018-01-10T19:04:38.839Z,7.50
2018-01-10T19:07:07.061Z,7.60
2018-01-10T19:09:34.502Z,7.60
2018-01-10T19:12:01.926Z,7.60
2018-01-10T19:14:29.377Z,7.60
2018-01-10T19:16:56.771Z,7.50
2018-01-10T19:19:25.080Z,7.50
2018-01-10T19:21:52.501Z,7.50
2018-01-10T19:24:19.921Z,7.50
2018-01-10T19:26:47.336Z,7.60
2018-01-10T19:29:14.768Z,7.60
2018-01-10T19:31:42.971Z,7.50
2018-01-10T19:34:10.462Z,7.40
2018-01-10T19:36:37.880Z,7.30
2018-01-10T19:39:05.311Z,7.20
2018-01-10T19:41:32.723Z,7.10
2018-01-10T19:44:00.162Z,7.10
2018-01-10T19:46:28.362Z,7.10
2018-01-10T19:48:55.769Z,7.10
2018-01-10T19:51:23.205Z,7.10
2018-01-10T19:53:51.416Z,7.00
2018-01-10T19:56:18.824Z,7.00
2018-01-10T19:58:46.248Z,7.10
2018-01-10T20:01:14.427Z,7.10
2018-01-10T20:03:41.851Z,7.10
2018-01-10T20:06:09.339Z,7.10
2018-01-10T20:08:36.754Z,7.10
2018-01-10T20:11:04.172Z,7.10
2018-01-10T20:13:32.355Z,7.10
2018-01-10T20:15:59.787Z,7.00
2018-01-10T20:18:27.231Z,7.10
2018-01-10T20:20:54.655Z,7.10
2018-01-10T20:23:22.862Z,7.20
2018-01-10T20:25:50.268Z,7.20
2018-01-10T20:28:17.704Z,7.20
2018-01-10T20:30:45.136Z,7.20
2018-01-10T20:33:13.315Z,7.30
2018-01-10T20:35:40.740Z,7.30
2018-01-10T20:38:08.931Z,7.40
2018-01-10T20:40:36.359Z,7.40
2018-01-10T20:43:03.789Z,7.40
2018-01-10T20:45:31.211Z,7.30
2018-01-10T20:47:59.395Z,7.10
2018-01-10T20:50:26.826Z,7.10
2018-01-10T20:52:55.015Z,6.90
2018-01-10T20:55:22.475Z,6.90
2018-01-10T20:57:50.071Z,6.90
2018-01-10T21:00:17.500Z,6.90
2018-01-10T21:02:45.708Z,6.80
2018-01-10T21:05:13.131Z,6.80
2018-01-10T21:07:40.615Z,6.80
2018-01-10T21:10:08.000Z,6.80
2018-01-10T21:12:36.267Z,6.50
2018-01-10T21:15:03.700Z,6.50
2018-01-10T21:17:31.121Z,6.50
2018-01-10T21:19:59.324Z,6.40
2018-01-10T21:22:26.738Z,6.40
2018-01-10T21:24:54.168Z,6.40
2018-01-10T21:27:22.393Z,6.60
2018-01-10T21:29:49.813Z,6.60
2018-01-10T21:32:17.231Z,6.60
2018-01-10T21:34:44.655Z,6.50
2018-01-10T21:37:12.918Z,6.40
2018-01-10T21:39:40.311Z,6.40
2018-01-10T21:42:07.747Z,6.30
2018-01-10T21:44:35.234Z,6.30
2018-01-10T21:47:03.425Z,6.20
2018-01-10T21:49:30.884Z,6.20
2018-01-10T21:51:58.345Z,6.20
2018-01-10T21:54:25.787Z,6.20
2018-01-10T21:56:53.232Z,6.30
2018-01-10T21:59:20.656Z,6.30
2018-01-10T22:01:48.108Z,6.30
2018-01-10T22:04:15.543Z,6.20
2018-01-10T22:06:42.948Z,6.10
2018-01-10T22:09:10.384Z,6.00
2018-01-10T22:11:37.814Z,5.90
2018-01-10T22:14:06.002Z,5.70
2018-01-10T22:16:33.427Z,5.70
2018-01-10T22:19:00.875Z,5.70
2018-01-10T22:21:28.299Z,5.60
2018-01-10T22:23:56.491Z,5.40
2018-01-10T22:26:23.925Z,5.30
2018-01-10T22:28:51.371Z,5.30
2018-01-10T22:31:18.783Z,5.10
2018-01-10T22:33:46.989Z,5.00
2018-01-10T22:36:14.411Z,5.00
2018-01-10T22:38:41.827Z,4.90
2018-01-10T22:41:10.026Z,4.80
2018-01-10T22:43:37.451Z,4.80
2018-01-10T22:46:04.875Z,4.70
2018-01-10T22:48:32.307Z,4.60
2018-01-10T22:51:00.500Z,4.50
2018-01-10T22:53:27.919Z,4.40
2018-01-10T22:55:55.347Z,4.50
2018-01-10T22:58:23.547Z,4.40
2018-01-10T23:00:50.989Z,4.40
2018-01-10T23:03:18.430Z,4.40
2018-01-10T23:05:45.890Z,4.30
2018-01-10T23:08:13.323Z,4.30
2018-01-10T23:10:40.743Z,4.20
2018-01-10T23:13:08.168Z,4.10
2018-01-10T23:15:35.596Z,4.10
2018-01-10T23:18:03.795Z,4.30
2018-01-10T23:20:31.229Z,4.30
2018-01-10T23:22:58.668Z,4.30
2018-01-10T23:25:26.088Z,4.30
2018-01-10T23:27:54.281Z,4.40
2018-01-10T23:30:21.721Z,4.40
2018-01-10T23:32:49.161Z,4.40
2018-01-10T23:35:16.598Z,4.20
2018-01-10T23:37:44.023Z,4.20
2018-01-10T23:40:11.464Z,4.10
2018-01-10T23:42:39.640Z,4.10
2018-01-10T23:45:07.079Z,4.00
2018-01-10T23:47:34.513Z,3.90
2018-01-10T23:50:01.949Z,3.80
2018-01-10T23:52:29.377Z,3.80
2018-01-10T23:54:57.548Z,3.70
2018-01-10T23:57:25.040Z,3.70
2018-01-10T23:59:52.460Z,3.60
